Check out our new BloomSky Weather System.

Active alerts

Galveston, TX
  Details for Galveston, TX Coastal Flood Advisory  +1 additional alert


Thunder radar  blitzortung!


Rain radar more information rain snow radar


Visit our other weather sites:

Template documentation
and downloads

And another site



Weather Underground History page Text

Daily Summary for February 10, 2018 Units:  Both    English   Metric
« Previous Day
Next Day »
Daily Weekly Monthly Yearly Custom
  High: Low: Average:
Temperature: TemperatureF °F /  -17.8 °C 45.3 °F /  7.4 °C 62.6 °F /  17 °C
Dew Point: DewpointF °F /  -17.8 °C 44.8 °F /  7.1 °C 62 °F /  16.7 °C
Humidity: Humidity % 90 % 98 %
Wind Speed: WindSpeedMPH mph /  0 km/h - 1.6 mph /  2.6 km/h
Wind Gust: WindSpeedGustMPH mph /  0 km/h - -
Wind:- - SW
Pressure: PressureIn in /  0 hPa 29.78 in /  1008.4 hPa -
Precipitation: 1.43 in /  36.32 mm    
Historical Graphs
 
 
Tabular Data for February 10, 2018
Time Temperature Dew Point Pressure Wind Wind Speed Wind Gust Humidity Rainfall Rate (Hourly)
TemperatureF °F /  -17.8 °C DewpointF °F /  -17.8 °C PressureIn in /  0 hPa Calm     Humidity % HourlyPrecipIn in /  0 mm
00:02 66.4 °F /  19.1 °C 66.0 °F /  18.9 °C 29.97 in /  1014.8 hPa SE 5.0 mph /  8 km/h 8.0 mph /  12.9 km/h 99 % 0.01 in /  0.25 mm
00:07 66.4 °F /  19.1 °C 66.0 °F /  18.9 °C 29.97 in /  1014.8 hPa SSE 2.0 mph /  3.2 km/h 8.0 mph /  12.9 km/h 99 % 0.01 in /  0.25 mm
00:12 66.2 °F /  19 °C 65.8 °F /  18.8 °C 29.97 in /  1014.8 hPa SW 3.0 mph /  4.8 km/h 7.0 mph /  11.3 km/h 99 % 0.01 in /  0.25 mm
00:17 66.2 °F /  19 °C 65.8 °F /  18.8 °C 29.97 in /  1014.8 hPa South 2.0 mph /  3.2 km/h 6.0 mph /  9.7 km/h 99 % 0.02 in /  0.51 mm
00:22 66.2 °F /  19 °C 65.8 °F /  18.8 °C 29.97 in /  1014.8 hPa SSE 3.0 mph /  4.8 km/h 6.0 mph /  9.7 km/h 99 % 0.02 in /  0.51 mm
00:27 66.2 °F /  19 °C 65.8 °F /  18.8 °C 29.96 in /  1014.4 hPa SSE 1.0 mph /  1.6 km/h 6.0 mph /  9.7 km/h 99 % 0.02 in /  0.51 mm
00:32 66.0 °F /  18.9 °C 65.7 °F /  18.7 °C 29.96 in /  1014.4 hPa SSE 1.0 mph /  1.6 km/h 5.0 mph /  8 km/h 99 % 0.02 in /  0.51 mm
00:37 66.0 °F /  18.9 °C 65.7 °F /  18.7 °C 29.96 in /  1014.4 hPa SW 2.0 mph /  3.2 km/h 4.0 mph /  6.4 km/h 99 % 0.02 in /  0.51 mm
00:42 65.8 °F /  18.8 °C 65.5 °F /  18.6 °C 29.96 in /  1014.4 hPa Calm   3.0 mph /  4.8 km/h 99 % 0.01 in /  0.25 mm
00:47 65.8 °F /  18.8 °C 65.5 °F /  18.6 °C 29.96 in /  1014.4 hPa Calm   2.0 mph /  3.2 km/h 99 % 0.01 in /  0.25 mm
00:52 65.8 °F /  18.8 °C 65.5 °F /  18.6 °C 29.96 in /  1014.4 hPa Calm   2.0 mph /  3.2 km/h 99 % 0.02 in /  0.51 mm
00:57 65.8 °F /  18.8 °C 65.5 °F /  18.6 °C 29.96 in /  1014.4 hPa SSW 1.0 mph /  1.6 km/h 2.0 mph /  3.2 km/h 99 % 0.02 in /  0.51 mm
01:02 65.8 °F /  18.8 °C 65.5 °F /  18.6 °C 29.96 in /  1014.4 hPa SW 1.0 mph /  1.6 km/h 2.0 mph /  3.2 km/h 99 % 0.02 in /  0.51 mm
01:07 65.7 °F /  18.7 °C 65.3 °F /  18.5 °C 29.96 in /  1014.4 hPa Calm   2.0 mph /  3.2 km/h 99 % 0.02 in /  0.51 mm
01:12 65.7 °F /  18.7 °C 65.3 °F /  18.5 °C 29.96 in /  1014.4 hPa Calm   2.0 mph /  3.2 km/h 99 % 0.02 in /  0.51 mm
01:17 65.7 °F /  18.7 °C 65.3 °F /  18.5 °C 29.96 in /  1014.4 hPa Calm   2.0 mph /  3.2 km/h 99 % 0.01 in /  0.25 mm
01:22 65.7 °F /  18.7 °C 65.3 °F /  18.5 °C 29.96 in /  1014.4 hPa Calm   2.0 mph /  3.2 km/h 99 % 0.01 in /  0.25 mm
01:27 65.7 °F /  18.7 °C 65.3 °F /  18.5 °C 29.95 in /  1014.1 hPa Calm   2.0 mph /  3.2 km/h 99 % 0.01 in /  0.25 mm
01:32 65.7 °F /  18.7 °C 65.3 °F /  18.5 °C 29.95 in /  1014.1 hPa Calm   2.0 mph /  3.2 km/h 99 % 0.01 in /  0.25 mm
01:37 65.5 °F /  18.6 °C 65.1 °F /  18.4 °C 29.94 in /  1013.8 hPa Calm   2.0 mph /  3.2 km/h 99 % 0.02 in /  0.51 mm
01:42 65.5 °F /  18.6 °C 65.1 °F /  18.4 °C 29.94 in /  1013.8 hPa Calm   2.0 mph /  3.2 km/h 99 % 0.02 in /  0.51 mm
01:47 65.5 °F /  18.6 °C 65.1 °F /  18.4 °C 29.94 in /  1013.8 hPa SE 1.0 mph /  1.6 km/h 1.0 mph /  1.6 km/h 99 % 0.02 in /  0.51 mm
01:52 65.5 °F /  18.6 °C 65.1 °F /  18.4 °C 29.94 in /  1013.8 hPa Calm   1.0 mph /  1.6 km/h 99 % 0.01 in /  0.25 mm
01:57 65.3 °F /  18.5 °C 64.9 °F /  18.3 °C 29.94 in /  1013.8 hPa Calm   1.0 mph /  1.6 km/h 99 % 0.01 in /  0.25 mm
02:02 65.1 °F /  18.4 °C 64.8 °F /  18.2 °C 29.94 in /  1013.8 hPa Calm   1.0 mph /  1.6 km/h 99 % 0.02 in /  0.51 mm
02:07 65.1 °F /  18.4 °C 64.8 °F /  18.2 °C 29.94 in /  1013.8 hPa Calm   1.0 mph /  1.6 km/h 99 % 0.02 in /  0.51 mm
02:12 64.9 °F /  18.3 °C 64.6 °F /  18.1 °C 29.94 in /  1013.8 hPa SSE 1.0 mph /  1.6 km/h   99 % 0.02 in /  0.51 mm
02:17 65.1 °F /  18.4 °C 64.8 °F /  18.2 °C 29.94 in /  1013.8 hPa Calm   2.0 mph /  3.2 km/h 99 % 0.02 in /  0.51 mm
02:22 65.1 °F /  18.4 °C 64.8 °F /  18.2 °C 29.94 in /  1013.8 hPa Calm   2.0 mph /  3.2 km/h 99 % 0.02 in /  0.51 mm
02:27 65.1 °F /  18.4 °C 64.8 °F /  18.2 °C 29.93 in /  1013.4 hPa SE 1.0 mph /  1.6 km/h 2.0 mph /  3.2 km/h 99 % 0.02 in /  0.51 mm
02:32 64.9 °F /  18.3 °C 64.6 °F /  18.1 °C 29.92 in /  1013.1 hPa Calm   1.0 mph /  1.6 km/h 99 % 0.02 in /  0.51 mm
02:37 64.9 °F /  18.3 °C 64.6 °F /  18.1 °C 29.92 in /  1013.1 hPa Calm   1.0 mph /  1.6 km/h 99 % 0.01 in /  0.25 mm
02:43 64.9 °F /  18.3 °C 64.6 °F /  18.1 °C 29.92 in /  1013.1 hPa SE 1.0 mph /  1.6 km/h 1.0 mph /  1.6 km/h 99 % 0.01 in /  0.25 mm
02:48 64.9 °F /  18.3 °C 64.6 °F /  18.1 °C 29.93 in /  1013.4 hPa South 1.0 mph /  1.6 km/h 1.0 mph /  1.6 km/h 99 % 0.01 in /  0.25 mm
02:53 64.9 °F /  18.3 °C 64.6 °F /  18.1 °C 29.93 in /  1013.4 hPa Calm   1.0 mph /  1.6 km/h 99 % 0.01 in /  0.25 mm
02:58 64.9 °F /  18.3 °C 64.6 °F /  18.1 °C 29.93 in /  1013.4 hPa Calm   1.0 mph /  1.6 km/h 99 % 0.01 in /  0.25 mm
03:03 64.9 °F /  18.3 °C 64.6 °F /  18.1 °C 29.93 in /  1013.4 hPa Calm   1.0 mph /  1.6 km/h 99 % 0.01 in /  0.25 mm
03:08 64.9 °F /  18.3 °C 64.6 °F /  18.1 °C 29.93 in /  1013.4 hPa Calm   1.0 mph /  1.6 km/h 99 % 0.06 in /  1.52 mm
03:13 64.9 °F /  18.3 °C 64.6 °F /  18.1 °C 29.92 in /  1013.1 hPa Calm   1.0 mph /  1.6 km/h 99 % 0.09 in /  2.29 mm
03:18 64.9 °F /  18.3 °C 64.6 °F /  18.1 °C 29.92 in /  1013.1 hPa Calm     99 % 0.11 in /  2.79 mm
03:23 64.9 °F /  18.3 °C 64.6 °F /  18.1 °C 29.93 in /  1013.4 hPa Calm     99 % 0.13 in /  3.3 mm
03:28 64.9 °F /  18.3 °C 64.6 °F /  18.1 °C 29.91 in /  1012.8 hPa NNE 1.0 mph /  1.6 km/h 1.0 mph /  1.6 km/h 99 % 0.20 in /  5.08 mm
03:33 64.9 °F /  18.3 °C 64.6 °F /  18.1 °C 29.91 in /  1012.8 hPa Calm   2.0 mph /  3.2 km/h 99 % 0.26 in /  6.6 mm
03:38 64.9 °F /  18.3 °C 64.6 °F /  18.1 °C 29.92 in /  1013.1 hPa Calm   2.0 mph /  3.2 km/h 99 % 0.31 in /  7.87 mm
03:43 64.9 °F /  18.3 °C 64.6 °F /  18.1 °C 29.91 in /  1012.8 hPa Calm   2.0 mph /  3.2 km/h 99 % 0.36 in /  9.14 mm
03:48 64.9 °F /  18.3 °C 64.6 °F /  18.1 °C 29.91 in /  1012.8 hPa Calm   1.0 mph /  1.6 km/h 99 % 0.38 in /  9.65 mm
03:53 64.8 °F /  18.2 °C 64.4 °F /  18 °C 29.91 in /  1012.8 hPa Calm   1.0 mph /  1.6 km/h 99 % 0.41 in /  10.41 mm
03:58 64.8 °F /  18.2 °C 64.4 °F /  18 °C 29.91 in /  1012.8 hPa Calm   1.0 mph /  1.6 km/h 99 % 0.44 in /  11.18 mm
04:03 64.8 °F /  18.2 °C 64.4 °F /  18 °C 29.91 in /  1012.8 hPa Calm   1.0 mph /  1.6 km/h 99 % 0.46 in /  11.68 mm
04:08 64.6 °F /  18.1 °C 64.2 °F /  17.9 °C 29.91 in /  1012.8 hPa Calm   1.0 mph /  1.6 km/h 99 % 0.43 in /  10.92 mm
04:13 64.6 °F /  18.1 °C 64.2 °F /  17.9 °C 29.91 in /  1012.8 hPa Calm   1.0 mph /  1.6 km/h 99 % 0.41 in /  10.41 mm
04:18 64.6 °F /  18.1 °C 64.2 °F /  17.9 °C 29.91 in /  1012.8 hPa Calm   1.0 mph /  1.6 km/h 99 % 0.40 in /  10.16 mm
04:23 64.6 °F /  18.1 °C 64.2 °F /  17.9 °C 29.90 in /  1012.4 hPa Calm   1.0 mph /  1.6 km/h 99 % 0.38 in /  9.65 mm
04:28 64.6 °F /  18.1 °C 64.2 °F /  17.9 °C 29.90 in /  1012.4 hPa Calm   1.0 mph /  1.6 km/h 99 % 0.31 in /  7.87 mm
04:33 64.4 °F /  18 °C 64.0 °F /  17.8 °C 29.90 in /  1012.4 hPa Calm   1.0 mph /  1.6 km/h 99 % 0.26 in /  6.6 mm
04:38 64.4 °F /  18 °C 64.0 °F /  17.8 °C 29.90 in /  1012.4 hPa Calm   1.0 mph /  1.6 km/h 99 % 0.24 in /  6.1 mm
04:43 64.2 °F /  17.9 °C 63.9 °F /  17.7 °C 29.91 in /  1012.8 hPa East 1.0 mph /  1.6 km/h   99 % 0.20 in /  5.08 mm
04:48 64.4 °F /  18 °C 64.0 °F /  17.8 °C 29.90 in /  1012.4 hPa East 1.0 mph /  1.6 km/h 1.0 mph /  1.6 km/h 99 % 0.20 in /  5.08 mm
04:53 64.4 °F /  18 °C 64.0 °F /  17.8 °C 29.90 in /  1012.4 hPa Calm   1.0 mph /  1.6 km/h 99 % 0.19 in /  4.83 mm
04:58 64.4 °F /  18 °C 64.0 °F /  17.8 °C 29.90 in /  1012.4 hPa East 1.0 mph /  1.6 km/h 1.0 mph /  1.6 km/h 99 % 0.17 in /  4.32 mm
05:03 64.4 °F /  18 °C 64.0 °F /  17.8 °C 29.91 in /  1012.8 hPa Calm   1.0 mph /  1.6 km/h 99 % 0.16 in /  4.06 mm
05:08 64.4 °F /  18 °C 64.0 °F /  17.8 °C 29.90 in /  1012.4 hPa Calm   1.0 mph /  1.6 km/h 99 % 0.23 in /  5.84 mm
05:13 64.6 °F /  18.1 °C 64.6 °F /  18.1 °C 29.90 in /  1012.4 hPa SE 1.0 mph /  1.6 km/h 1.0 mph /  1.6 km/h 100 % 0.25 in /  6.35 mm
05:18 64.6 °F /  18.1 °C 64.6 °F /  18.1 °C 29.89 in /  1012.1 hPa Calm   1.0 mph /  1.6 km/h 100 % 0.29 in /  7.37 mm
05:23 64.6 °F /  18.1 °C 64.6 °F /  18.1 °C 29.90 in /  1012.4 hPa NW 1.0 mph /  1.6 km/h 1.0 mph /  1.6 km/h 100 % 0.34 in /  8.64 mm
05:28 64.8 °F /  18.2 °C 64.8 °F /  18.2 °C 29.91 in /  1012.8 hPa Calm   2.0 mph /  3.2 km/h 100 % 0.36 in /  9.14 mm
05:33 64.6 °F /  18.1 °C 64.6 °F /  18.1 °C 29.91 in /  1012.8 hPa Calm   2.0 mph /  3.2 km/h 100 % 0.36 in /  9.14 mm
05:38 64.6 °F /  18.1 °C 64.6 °F /  18.1 °C 29.91 in /  1012.8 hPa Calm   2.0 mph /  3.2 km/h 100 % 0.37 in /  9.4 mm
05:43 64.6 °F /  18.1 °C 64.6 °F /  18.1 °C 29.90 in /  1012.4 hPa Calm   1.0 mph /  1.6 km/h 100 % 0.42 in /  10.67 mm
05:48 64.6 °F /  18.1 °C 64.6 °F /  18.1 °C 29.90 in /  1012.4 hPa Calm   1.0 mph /  1.6 km/h 100 % 0.46 in /  11.68 mm
05:53 64.6 °F /  18.1 °C 64.6 °F /  18.1 °C 29.90 in /  1012.4 hPa ENE 1.0 mph /  1.6 km/h 1.0 mph /  1.6 km/h 100 % 0.48 in /  12.19 mm
05:58 64.8 °F /  18.2 °C 64.8 °F /  18.2 °C 29.90 in /  1012.4 hPa Calm   1.0 mph /  1.6 km/h 100 % 0.48 in /  12.19 mm
06:04 64.8 °F /  18.2 °C 64.8 °F /  18.2 °C 29.91 in /  1012.8 hPa Calm   1.0 mph /  1.6 km/h 100 % 0.47 in /  11.94 mm
06:09 64.6 °F /  18.1 °C 64.6 °F /  18.1 °C 29.90 in /  1012.4 hPa Calm   1.0 mph /  1.6 km/h 100 % 0.40 in /  10.16 mm
06:14 64.6 °F /  18.1 °C 64.6 °F /  18.1 °C 29.90 in /  1012.4 hPa Calm   1.0 mph /  1.6 km/h 100 % 0.39 in /  9.91 mm
06:19 64.6 °F /  18.1 °C 64.6 °F /  18.1 °C 29.91 in /  1012.8 hPa Calm   1.0 mph /  1.6 km/h 100 % 0.37 in /  9.4 mm
06:24 64.6 °F /  18.1 °C 64.6 °F /  18.1 °C 29.90 in /  1012.4 hPa Calm   1.0 mph /  1.6 km/h 100 % 0.37 in /  9.4 mm
06:29 64.6 °F /  18.1 °C 64.6 °F /  18.1 °C 29.90 in /  1012.4 hPa Calm   1.0 mph /  1.6 km/h 100 % 0.37 in /  9.4 mm
06:34 64.6 °F /  18.1 °C 64.6 °F /  18.1 °C 29.90 in /  1012.4 hPa Calm   1.0 mph /  1.6 km/h 100 % 0.36 in /  9.14 mm
06:39 64.6 °F /  18.1 °C 64.6 °F /  18.1 °C 29.91 in /  1012.8 hPa Calm   1.0 mph /  1.6 km/h 100 % 0.34 in /  8.64 mm
06:44 64.6 °F /  18.1 °C 64.6 °F /  18.1 °C 29.90 in /  1012.4 hPa NNW 1.0 mph /  1.6 km/h 1.0 mph /  1.6 km/h 100 % 0.30 in /  7.62 mm
06:49 64.6 °F /  18.1 °C 64.6 °F /  18.1 °C 29.90 in /  1012.4 hPa Calm   2.0 mph /  3.2 km/h 100 % 0.24 in /  6.1 mm
06:54 64.6 °F /  18.1 °C 64.6 °F /  18.1 °C 29.90 in /  1012.4 hPa Calm   2.0 mph /  3.2 km/h 100 % 0.22 in /  5.59 mm
06:59 64.6 °F /  18.1 °C 64.6 °F /  18.1 °C 29.90 in /  1012.4 hPa Calm   2.0 mph /  3.2 km/h 100 % 0.21 in /  5.33 mm
07:04 64.6 °F /  18.1 °C 64.6 °F /  18.1 °C 29.90 in /  1012.4 hPa North 1.0 mph /  1.6 km/h 3.0 mph /  4.8 km/h 100 % 0.20 in /  5.08 mm
07:09 64.6 °F /  18.1 °C 64.6 °F /  18.1 °C 29.90 in /  1012.4 hPa NW 1.0 mph /  1.6 km/h 3.0 mph /  4.8 km/h 100 % 0.20 in /  5.08 mm
07:14 64.6 °F /  18.1 °C 64.6 °F /  18.1 °C 29.90 in /  1012.4 hPa Calm   3.0 mph /  4.8 km/h 100 % 0.18 in /  4.57 mm
07:19 64.6 °F /  18.1 °C 64.6 °F /  18.1 °C 29.90 in /  1012.4 hPa Calm   2.0 mph /  3.2 km/h 100 % 0.17 in /  4.32 mm
07:24 64.6 °F /  18.1 °C 64.6 °F /  18.1 °C 29.90 in /  1012.4 hPa Calm   2.0 mph /  3.2 km/h 100 % 0.12 in /  3.05 mm
07:29 64.6 °F /  18.1 °C 64.6 °F /  18.1 °C 29.90 in /  1012.4 hPa Calm   1.0 mph /  1.6 km/h 100 % 0.11 in /  2.79 mm
07:34 64.6 °F /  18.1 °C 64.6 °F /  18.1 °C 29.90 in /  1012.4 hPa NW 1.0 mph /  1.6 km/h 1.0 mph /  1.6 km/h 100 % 0.10 in /  2.54 mm
07:39 64.6 °F /  18.1 °C 64.6 °F /  18.1 °C 29.91 in /  1012.8 hPa Calm   2.0 mph /  3.2 km/h 100 % 0.09 in /  2.29 mm
07:44 64.6 °F /  18.1 °C 64.6 °F /  18.1 °C 29.90 in /  1012.4 hPa Calm   2.0 mph /  3.2 km/h 100 % 0.06 in /  1.52 mm
07:49 64.6 °F /  18.1 °C 64.6 °F /  18.1 °C 29.90 in /  1012.4 hPa Calm   2.0 mph /  3.2 km/h 100 % 0.06 in /  1.52 mm
07:54 64.6 °F /  18.1 °C 64.6 °F /  18.1 °C 29.90 in /  1012.4 hPa Calm   1.0 mph /  1.6 km/h 100 % 0.05 in /  1.27 mm
07:59 64.6 °F /  18.1 °C 64.6 °F /  18.1 °C 29.89 in /  1012.1 hPa Calm   1.0 mph /  1.6 km/h 100 % 0.05 in /  1.27 mm
08:04 64.6 °F /  18.1 °C 64.6 °F /  18.1 °C 29.90 in /  1012.4 hPa Calm   1.0 mph /  1.6 km/h 100 % 0.04 in /  1.02 mm
08:09 64.6 °F /  18.1 °C 64.6 °F /  18.1 °C 29.89 in /  1012.1 hPa Calm   1.0 mph /  1.6 km/h 100 % 0.03 in /  0.76 mm
08:14 64.6 °F /  18.1 °C 64.6 °F /  18.1 °C 29.89 in /  1012.1 hPa Calm   1.0 mph /  1.6 km/h 100 % 0.03 in /  0.76 mm
08:19 64.6 °F /  18.1 °C 64.6 °F /  18.1 °C 29.90 in /  1012.4 hPa East 1.0 mph /  1.6 km/h 1.0 mph /  1.6 km/h 100 % 0.01 in /  0.25 mm
08:24 64.6 °F /  18.1 °C 64.6 °F /  18.1 °C 29.90 in /  1012.4 hPa Calm   1.0 mph /  1.6 km/h 100 % 0.01 in /  0.25 mm
08:29 64.6 °F /  18.1 °C 64.6 °F /  18.1 °C 29.90 in /  1012.4 hPa Calm   1.0 mph /  1.6 km/h 100 % 0.00 in /  0 mm
08:34 64.8 °F /  18.2 °C 64.8 °F /  18.2 °C 29.90 in /  1012.4 hPa Calm   1.0 mph /  1.6 km/h 100 % 0.00 in /  0 mm
08:39 64.8 °F /  18.2 °C 64.8 °F /  18.2 °C 29.90 in /  1012.4 hPa Calm   2.0 mph /  3.2 km/h 100 % 0.00 in /  0 mm
08:44 64.8 °F /  18.2 °C 64.8 °F /  18.2 °C 29.91 in /  1012.8 hPa Calm   2.0 mph /  3.2 km/h 100 % 0.00 in /  0 mm
08:49 64.8 °F /  18.2 °C 64.8 °F /  18.2 °C 29.91 in /  1012.8 hPa East 1.0 mph /  1.6 km/h 2.0 mph /  3.2 km/h 100 % 0.00 in /  0 mm
08:54 64.9 °F /  18.3 °C 64.9 °F /  18.3 °C 29.91 in /  1012.8 hPa ESE 1.0 mph /  1.6 km/h 1.0 mph /  1.6 km/h 100 % 0.00 in /  0 mm
08:59 64.9 °F /  18.3 °C 64.9 °F /  18.3 °C 29.91 in /  1012.8 hPa Calm   1.0 mph /  1.6 km/h 100 % 0.00 in /  0 mm
09:04 64.9 °F /  18.3 °C 64.9 °F /  18.3 °C 29.91 in /  1012.8 hPa Calm   2.0 mph /  3.2 km/h 100 % 0.00 in /  0 mm
09:09 65.1 °F /  18.4 °C 65.1 °F /  18.4 °C 29.91 in /  1012.8 hPa East 1.0 mph /  1.6 km/h 2.0 mph /  3.2 km/h 100 % 0.00 in /  0 mm
09:14 65.1 °F /  18.4 °C 65.1 °F /  18.4 °C 29.91 in /  1012.8 hPa Calm   2.0 mph /  3.2 km/h 100 % 0.00 in /  0 mm
09:19 65.1 °F /  18.4 °C 65.1 °F /  18.4 °C 29.91 in /  1012.8 hPa ESE 1.0 mph /  1.6 km/h 2.0 mph /  3.2 km/h 100 % 0.00 in /  0 mm
09:24 65.1 °F /  18.4 °C 65.1 °F /  18.4 °C 29.90 in /  1012.4 hPa Calm   2.0 mph /  3.2 km/h 100 % 0.00 in /  0 mm
09:29 65.3 °F /  18.5 °C 65.3 °F /  18.5 °C 29.91 in /  1012.8 hPa Calm   2.0 mph /  3.2 km/h 100 % 0.00 in /  0 mm
09:34 65.5 °F /  18.6 °C 65.5 °F /  18.6 °C 29.91 in /  1012.8 hPa ESE 1.0 mph /  1.6 km/h 2.0 mph /  3.2 km/h 100 % 0.00 in /  0 mm
09:39 65.5 °F /  18.6 °C 65.5 °F /  18.6 °C 29.91 in /  1012.8 hPa Calm   2.0 mph /  3.2 km/h 100 % 0.00 in /  0 mm
09:44 65.7 °F /  18.7 °C 65.7 °F /  18.7 °C 29.91 in /  1012.8 hPa East 2.0 mph /  3.2 km/h 3.0 mph /  4.8 km/h 100 % 0.00 in /  0 mm
09:49 65.7 °F /  18.7 °C 65.7 °F /  18.7 °C 29.91 in /  1012.8 hPa Calm   3.0 mph /  4.8 km/h 100 % 0.00 in /  0 mm
09:54 66.0 °F /  18.9 °C 66.0 °F /  18.9 °C 29.90 in /  1012.4 hPa ESE 1.0 mph /  1.6 km/h 3.0 mph /  4.8 km/h 100 % 0.00 in /  0 mm
09:59 66.4 °F /  19.1 °C 66.4 °F /  19.1 °C 29.91 in /  1012.8 hPa Calm   3.0 mph /  4.8 km/h 100 % 0.00 in /  0 mm
10:04 66.4 °F /  19.1 °C 66.4 °F /  19.1 °C 29.91 in /  1012.8 hPa South 1.0 mph /  1.6 km/h 2.0 mph /  3.2 km/h 100 % 0.00 in /  0 mm
10:09 66.6 °F /  19.2 °C 66.6 °F /  19.2 °C 29.91 in /  1012.8 hPa Calm   2.0 mph /  3.2 km/h 100 % 0.00 in /  0 mm
10:14 66.7 °F /  19.3 °C 66.7 °F /  19.3 °C 29.91 in /  1012.8 hPa Calm   2.0 mph /  3.2 km/h 100 % 0.00 in /  0 mm
10:19 66.9 °F /  19.4 °C 66.9 °F /  19.4 °C 29.91 in /  1012.8 hPa SE 1.0 mph /  1.6 km/h 2.0 mph /  3.2 km/h 100 % 0.00 in /  0 mm
10:24 66.7 °F /  19.3 °C 66.7 °F /  19.3 °C 29.91 in /  1012.8 hPa Calm   2.0 mph /  3.2 km/h 100 % 0.00 in /  0 mm
10:29 66.9 °F /  19.4 °C 66.9 °F /  19.4 °C 29.91 in /  1012.8 hPa Calm   3.0 mph /  4.8 km/h 100 % 0.00 in /  0 mm
10:34 67.5 °F /  19.7 °C 67.5 °F /  19.7 °C 29.91 in /  1012.8 hPa Calm   3.0 mph /  4.8 km/h 100 % 0.00 in /  0 mm
10:39 67.8 °F /  19.9 °C 67.8 °F /  19.9 °C 29.91 in /  1012.8 hPa Calm   3.0 mph /  4.8 km/h 100 % 0.00 in /  0 mm
10:44 68.9 °F /  20.5 °C 68.9 °F /  20.5 °C 29.91 in /  1012.8 hPa South 1.0 mph /  1.6 km/h 2.0 mph /  3.2 km/h 100 % 0.00 in /  0 mm
10:49 69.4 °F /  20.8 °C 69.4 °F /  20.8 °C 29.91 in /  1012.8 hPa SSE 2.0 mph /  3.2 km/h 2.0 mph /  3.2 km/h 100 % 0.00 in /  0 mm
10:54 69.1 °F /  20.6 °C 69.1 °F /  20.6 °C 29.91 in /  1012.8 hPa South 1.0 mph /  1.6 km/h 3.0 mph /  4.8 km/h 100 % 0.00 in /  0 mm
10:59 69.4 °F /  20.8 °C 69.4 °F /  20.8 °C 29.90 in /  1012.4 hPa SE 1.0 mph /  1.6 km/h 3.0 mph /  4.8 km/h 100 % 0.00 in /  0 mm
11:04 69.8 °F /  21 °C 69.8 °F /  21 °C 29.90 in /  1012.4 hPa SSW 2.0 mph /  3.2 km/h 3.0 mph /  4.8 km/h 100 % 0.00 in /  0 mm
11:09 70.0 °F /  21.1 °C 70.0 °F /  21.1 °C 29.90 in /  1012.4 hPa SSW 1.0 mph /  1.6 km/h 3.0 mph /  4.8 km/h 100 % 0.00 in /  0 mm
11:14 70.0 °F /  21.1 °C 70.0 °F /  21.1 °C 29.90 in /  1012.4 hPa Calm   3.0 mph /  4.8 km/h 100 % 0.00 in /  0 mm
11:19 69.8 °F /  21 °C 69.8 °F /  21 °C 29.90 in /  1012.4 hPa ESE 1.0 mph /  1.6 km/h 4.0 mph /  6.4 km/h 100 % 0.00 in /  0 mm
11:24 69.8 °F /  21 °C 69.8 °F /  21 °C 29.90 in /  1012.4 hPa SSW 2.0 mph /  3.2 km/h 4.0 mph /  6.4 km/h 100 % 0.00 in /  0 mm
11:29 69.3 °F /  20.7 °C 68.9 °F /  20.5 °C 29.90 in /  1012.4 hPa SSW 2.0 mph /  3.2 km/h 4.0 mph /  6.4 km/h 99 % 0.00 in /  0 mm
11:34 69.3 °F /  20.7 °C 68.9 °F /  20.5 °C 29.89 in /  1012.1 hPa East 2.0 mph /  3.2 km/h 3.0 mph /  4.8 km/h 99 % 0.00 in /  0 mm
11:39 69.3 °F /  20.7 °C 69.3 °F /  20.7 °C 29.89 in /  1012.1 hPa SSW 1.0 mph /  1.6 km/h 3.0 mph /  4.8 km/h 100 % 0.00 in /  0 mm
11:44 69.3 °F /  20.7 °C 69.3 °F /  20.7 °C 29.89 in /  1012.1 hPa Calm   3.0 mph /  4.8 km/h 100 % 0.00 in /  0 mm
11:49 69.3 °F /  20.7 °C 69.3 °F /  20.7 °C 29.88 in /  1011.7 hPa South 2.0 mph /  3.2 km/h 3.0 mph /  4.8 km/h 100 % 0.00 in /  0 mm
11:54 69.1 °F /  20.6 °C 69.1 °F /  20.6 °C 29.88 in /  1011.7 hPa SW 2.0 mph /  3.2 km/h 3.0 mph /  4.8 km/h 100 % 0.00 in /  0 mm
11:59 68.9 °F /  20.5 °C 68.5 °F /  20.3 °C 29.88 in /  1011.7 hPa Calm   3.0 mph /  4.8 km/h 99 % 0.00 in /  0 mm
12:04 69.1 °F /  20.6 °C 69.1 °F /  20.6 °C 29.87 in /  1011.4 hPa Calm   3.0 mph /  4.8 km/h 100 % 0.00 in /  0 mm
12:09 69.1 °F /  20.6 °C 69.1 °F /  20.6 °C 29.87 in /  1011.4 hPa Calm   3.0 mph /  4.8 km/h 100 % 0.00 in /  0 mm
12:14 69.1 °F /  20.6 °C 69.1 °F /  20.6 °C 29.87 in /  1011.4 hPa SSW 1.0 mph /  1.6 km/h 3.0 mph /  4.8 km/h 100 % 0.00 in /  0 mm
12:19 68.9 °F /  20.5 °C 68.9 °F /  20.5 °C 29.86 in /  1011.1 hPa SSW 1.0 mph /  1.6 km/h 2.0 mph /  3.2 km/h 100 % 0.00 in /  0 mm
12:24 68.7 °F /  20.4 °C 68.4 °F /  20.2 °C 29.86 in /  1011.1 hPa Calm   2.0 mph /  3.2 km/h 99 % 0.00 in /  0 mm
12:29 68.9 °F /  20.5 °C 68.9 °F /  20.5 °C 29.86 in /  1011.1 hPa Calm   2.0 mph /  3.2 km/h 100 % 0.00 in /  0 mm
12:34 68.7 °F /  20.4 °C 68.4 °F /  20.2 °C 29.86 in /  1011.1 hPa SSW 1.0 mph /  1.6 km/h 2.0 mph /  3.2 km/h 99 % 0.00 in /  0 mm
12:39 68.5 °F /  20.3 °C 68.2 °F /  20.1 °C 29.85 in /  1010.7 hPa SSE 1.0 mph /  1.6 km/h 2.0 mph /  3.2 km/h 99 % 0.00 in /  0 mm
12:44 68.5 °F /  20.3 °C 68.2 °F /  20.1 °C 29.84 in /  1010.4 hPa Calm   3.0 mph /  4.8 km/h 99 % 0.00 in /  0 mm
12:49 68.4 °F /  20.2 °C 68.0 °F /  20 °C 29.84 in /  1010.4 hPa SSW 1.0 mph /  1.6 km/h 3.0 mph /  4.8 km/h 99 % 0.00 in /  0 mm
12:54 68.4 °F /  20.2 °C 68.0 °F /  20 °C 29.84 in /  1010.4 hPa East 3.0 mph /  4.8 km/h 3.0 mph /  4.8 km/h 99 % 0.01 in /  0.25 mm
12:59 68.4 °F /  20.2 °C 68.0 °F /  20 °C 29.84 in /  1010.4 hPa SSW 1.0 mph /  1.6 km/h 3.0 mph /  4.8 km/h 99 % 0.02 in /  0.51 mm
13:05 68.5 °F /  20.3 °C 68.2 °F /  20.1 °C 29.84 in /  1010.4 hPa SSW 1.0 mph /  1.6 km/h 4.0 mph /  6.4 km/h 99 % 0.02 in /  0.51 mm
13:10 68.5 °F /  20.3 °C 68.2 °F /  20.1 °C 29.83 in /  1010 hPa Calm   4.0 mph /  6.4 km/h 99 % 0.03 in /  0.76 mm
13:15 68.9 °F /  20.5 °C 68.9 °F /  20.5 °C 29.83 in /  1010 hPa SW 1.0 mph /  1.6 km/h 4.0 mph /  6.4 km/h 100 % 0.04 in /  1.02 mm
13:20 68.7 °F /  20.4 °C 68.4 °F /  20.2 °C 29.83 in /  1010 hPa Calm   3.0 mph /  4.8 km/h 99 % 0.04 in /  1.02 mm
13:25 68.7 °F /  20.4 °C 68.4 °F /  20.2 °C 29.82 in /  1009.7 hPa Calm   3.0 mph /  4.8 km/h 99 % 0.04 in /  1.02 mm
13:30 68.7 °F /  20.4 °C 68.4 °F /  20.2 °C 29.82 in /  1009.7 hPa South 1.0 mph /  1.6 km/h 3.0 mph /  4.8 km/h 99 % 0.04 in /  1.02 mm
13:35 68.7 °F /  20.4 °C 68.4 °F /  20.2 °C 29.82 in /  1009.7 hPa Calm   3.0 mph /  4.8 km/h 99 % 0.04 in /  1.02 mm
13:40 69.1 °F /  20.6 °C 68.7 °F /  20.4 °C 29.82 in /  1009.7 hPa SW 2.0 mph /  3.2 km/h 3.0 mph /  4.8 km/h 99 % 0.04 in /  1.02 mm
13:45 69.1 °F /  20.6 °C 68.7 °F /  20.4 °C 29.81 in /  1009.4 hPa SW 1.0 mph /  1.6 km/h 2.0 mph /  3.2 km/h 99 % 0.04 in /  1.02 mm
13:50 69.1 °F /  20.6 °C 68.7 °F /  20.4 °C 29.81 in /  1009.4 hPa SSW 2.0 mph /  3.2 km/h 7.0 mph /  11.3 km/h 99 % 0.04 in /  1.02 mm
13:55 68.7 °F /  20.4 °C 68.2 °F /  20.1 °C 29.81 in /  1009.4 hPa SSW 1.0 mph /  1.6 km/h 7.0 mph /  11.3 km/h 98 % 0.03 in /  0.76 mm
14:00 68.7 °F /  20.4 °C 68.2 °F /  20.1 °C 29.81 in /  1009.4 hPa Calm   7.0 mph /  11.3 km/h 98 % 0.02 in /  0.51 mm
14:05 68.7 °F /  20.4 °C 68.2 °F /  20.1 °C 29.81 in /  1009.4 hPa WSW 1.0 mph /  1.6 km/h 3.0 mph /  4.8 km/h 98 % 0.00 in /  0 mm
14:10 68.7 °F /  20.4 °C 68.2 °F /  20.1 °C 29.80 in /  1009 hPa SW 1.0 mph /  1.6 km/h 3.0 mph /  4.8 km/h 98 % 0.00 in /  0 mm
14:15 69.1 °F /  20.6 °C 68.5 °F /  20.3 °C 29.80 in /  1009 hPa South 2.0 mph /  3.2 km/h 3.0 mph /  4.8 km/h 98 % 0.00 in /  0 mm
14:20 69.1 °F /  20.6 °C 68.5 °F /  20.3 °C 29.80 in /  1009 hPa SW 1.0 mph /  1.6 km/h 3.0 mph /  4.8 km/h 98 % 0.00 in /  0 mm
14:25 69.3 °F /  20.7 °C 68.7 °F /  20.4 °C 29.80 in /  1009 hPa SW 2.0 mph /  3.2 km/h 3.0 mph /  4.8 km/h 98 % 0.00 in /  0 mm
14:30 69.3 °F /  20.7 °C 68.4 °F /  20.2 °C 29.80 in /  1009 hPa Calm   3.0 mph /  4.8 km/h 97 % 0.00 in /  0 mm
14:35 69.4 °F /  20.8 °C 68.5 °F /  20.3 °C 29.79 in /  1008.7 hPa SW 3.0 mph /  4.8 km/h 3.0 mph /  4.8 km/h 97 % 0.00 in /  0 mm
14:40 69.6 °F /  20.9 °C 69.1 °F /  20.6 °C 29.79 in /  1008.7 hPa SSW 2.0 mph /  3.2 km/h 3.0 mph /  4.8 km/h 98 % 0.00 in /  0 mm
14:45 70.0 °F /  21.1 °C 69.1 °F /  20.6 °C 29.79 in /  1008.7 hPa SSW 1.0 mph /  1.6 km/h 5.0 mph /  8 km/h 97 % 0.00 in /  0 mm
14:50 70.2 °F /  21.2 °C 69.3 °F /  20.7 °C 29.79 in /  1008.7 hPa SW 4.0 mph /  6.4 km/h 7.0 mph /  11.3 km/h 97 % 0.00 in /  0 mm
14:55 70.3 °F /  21.3 °C 69.1 °F /  20.6 °C 29.79 in /  1008.7 hPa SW 1.0 mph /  1.6 km/h 7.0 mph /  11.3 km/h 96 % 0.00 in /  0 mm
15:00 71.1 °F /  21.7 °C 69.8 °F /  21 °C 29.79 in /  1008.7 hPa SSW 3.0 mph /  4.8 km/h 7.0 mph /  11.3 km/h 96 % 0.00 in /  0 mm
15:05 71.8 °F /  22.1 °C 70.3 °F /  21.3 °C 29.78 in /  1008.4 hPa SSE 1.0 mph /  1.6 km/h 7.0 mph /  11.3 km/h 95 % 0.00 in /  0 mm
15:10 71.8 °F /  22.1 °C 69.6 °F /  20.9 °C 29.79 in /  1008.7 hPa SW 2.0 mph /  3.2 km/h 6.0 mph /  9.7 km/h 93 % 0.00 in /  0 mm
15:15 71.8 °F /  22.1 °C 69.3 °F /  20.7 °C 29.79 in /  1008.7 hPa SSW 2.0 mph /  3.2 km/h 6.0 mph /  9.7 km/h 92 % 0.00 in /  0 mm
15:20 71.4 °F /  21.9 °C 68.4 °F /  20.2 °C 29.79 in /  1008.7 hPa South 4.0 mph /  6.4 km/h 8.0 mph /  12.9 km/h 90 % 0.00 in /  0 mm
15:25 71.1 °F /  21.7 °C 68.5 °F /  20.3 °C 29.79 in /  1008.7 hPa WSW 2.0 mph /  3.2 km/h 8.0 mph /  12.9 km/h 92 % 0.00 in /  0 mm
15:30 71.1 °F /  21.7 °C 68.4 °F /  20.2 °C 29.79 in /  1008.7 hPa SW 2.0 mph /  3.2 km/h 8.0 mph /  12.9 km/h 91 % 0.00 in /  0 mm
15:35 70.9 °F /  21.6 °C 68.4 °F /  20.2 °C 29.79 in /  1008.7 hPa SSW 2.0 mph /  3.2 km/h 8.0 mph /  12.9 km/h 92 % 0.00 in /  0 mm
15:40 70.9 °F /  21.6 °C 68.4 °F /  20.2 °C 29.79 in /  1008.7 hPa SSW 2.0 mph /  3.2 km/h 5.0 mph /  8 km/h 92 % 0.00 in /  0 mm
15:45 70.9 °F /  21.6 °C 68.7 °F /  20.4 °C 29.79 in /  1008.7 hPa SSW 2.0 mph /  3.2 km/h 5.0 mph /  8 km/h 93 % 0.00 in /  0 mm
15:50 70.9 °F /  21.6 °C 68.7 °F /  20.4 °C 29.79 in /  1008.7 hPa SSE 2.0 mph /  3.2 km/h 5.0 mph /  8 km/h 93 % 0.00 in /  0 mm
15:55 70.9 °F /  21.6 °C 68.7 °F /  20.4 °C 29.80 in /  1009 hPa South 3.0 mph /  4.8 km/h 6.0 mph /  9.7 km/h 93 % 0.00 in /  0 mm
16:00 70.7 °F /  21.5 °C 68.9 °F /  20.5 °C 29.80 in /  1009 hPa SSE 4.0 mph /  6.4 km/h 6.0 mph /  9.7 km/h 94 % 0.00 in /  0 mm
16:01 70.7 °F /  21.5 °C 68.9 °F /  20.5 °C 29.80 in /  1009 hPa SSE 6.0 mph /  9.7 km/h 6.0 mph /  9.7 km/h 94 % 0.00 in /  0 mm
16:06 70.5 °F /  21.4 °C 68.7 °F /  20.4 °C 29.80 in /  1009 hPa SW 1.0 mph /  1.6 km/h 9.0 mph /  14.5 km/h 94 % 0.00 in /  0 mm
16:11 70.3 °F /  21.3 °C 68.2 °F /  20.1 °C 29.80 in /  1009 hPa SW 2.0 mph /  3.2 km/h 9.0 mph /  14.5 km/h 93 % 0.00 in /  0 mm
16:16 70.3 °F /  21.3 °C 68.5 °F /  20.3 °C 29.80 in /  1009 hPa SW 3.0 mph /  4.8 km/h 9.0 mph /  14.5 km/h 94 % 0.00 in /  0 mm
16:21 70.3 °F /  21.3 °C 68.2 °F /  20.1 °C 29.80 in /  1009 hPa SSW 3.0 mph /  4.8 km/h 7.0 mph /  11.3 km/h 93 % 0.00 in /  0 mm
16:26 70.2 °F /  21.2 °C 68.4 °F /  20.2 °C 29.80 in /  1009 hPa South 5.0 mph /  8 km/h 7.0 mph /  11.3 km/h 94 % 0.00 in /  0 mm
16:31 70.2 °F /  21.2 °C 68.0 °F /  20 °C 29.80 in /  1009 hPa SSW 3.0 mph /  4.8 km/h 7.0 mph /  11.3 km/h 93 % 0.00 in /  0 mm
16:36 70.2 °F /  21.2 °C 68.0 °F /  20 °C 29.79 in /  1008.7 hPa SSW 5.0 mph /  8 km/h 7.0 mph /  11.3 km/h 93 % 0.00 in /  0 mm
16:41 70.0 °F /  21.1 °C 67.8 °F /  19.9 °C 29.79 in /  1008.7 hPa SSW 3.0 mph /  4.8 km/h 8.0 mph /  12.9 km/h 93 % 0.00 in /  0 mm
16:46 70.0 °F /  21.1 °C 67.8 °F /  19.9 °C 29.80 in /  1009 hPa South 7.0 mph /  11.3 km/h 8.0 mph /  12.9 km/h 93 % 0.00 in /  0 mm
16:51 70.0 °F /  21.1 °C 67.8 °F /  19.9 °C 29.80 in /  1009 hPa South 2.0 mph /  3.2 km/h 8.0 mph /  12.9 km/h 93 % 0.00 in /  0 mm
16:56 69.8 °F /  21 °C 67.6 °F /  19.8 °C 29.79 in /  1008.7 hPa SW 4.0 mph /  6.4 km/h 8.0 mph /  12.9 km/h 93 % 0.00 in /  0 mm
17:01 69.6 °F /  20.9 °C 67.5 °F /  19.7 °C 29.80 in /  1009 hPa SSW 5.0 mph /  8 km/h 8.0 mph /  12.9 km/h 93 % 0.00 in /  0 mm
17:06 69.6 °F /  20.9 °C 67.8 °F /  19.9 °C 29.80 in /  1009 hPa SSW 2.0 mph /  3.2 km/h 7.0 mph /  11.3 km/h 94 % 0.00 in /  0 mm
17:11 69.6 °F /  20.9 °C 67.8 °F /  19.9 °C 29.80 in /  1009 hPa SSW 3.0 mph /  4.8 km/h 7.0 mph /  11.3 km/h 94 % 0.00 in /  0 mm
17:16 69.6 °F /  20.9 °C 68.2 °F /  20.1 °C 29.80 in /  1009 hPa SE 2.0 mph /  3.2 km/h 6.0 mph /  9.7 km/h 95 % 0.00 in /  0 mm
17:21 69.6 °F /  20.9 °C 68.2 °F /  20.1 °C 29.81 in /  1009.4 hPa SE 4.0 mph /  6.4 km/h 5.0 mph /  8 km/h 95 % 0.00 in /  0 mm
17:26 69.4 °F /  20.8 °C 68.0 °F /  20 °C 29.81 in /  1009.4 hPa SW 3.0 mph /  4.8 km/h 6.0 mph /  9.7 km/h 95 % 0.00 in /  0 mm
17:31 68.7 °F /  20.4 °C 66.6 °F /  19.2 °C 29.81 in /  1009.4 hPa WSW 1.0 mph /  1.6 km/h 7.0 mph /  11.3 km/h 93 % 0.00 in /  0 mm
17:36 66.9 °F /  19.4 °C 64.2 °F /  17.9 °C 29.82 in /  1009.7 hPa NW 8.0 mph /  12.9 km/h 8.0 mph /  12.9 km/h 91 % 0.00 in /  0 mm
17:41 64.6 °F /  18.1 °C 61.9 °F /  16.6 °C 29.82 in /  1009.7 hPa NW 4.0 mph /  6.4 km/h 11.0 mph /  17.7 km/h 91 % 0.00 in /  0 mm
17:46 63.0 °F /  17.2 °C 61.0 °F /  16.1 °C 29.82 in /  1009.7 hPa WNW 6.0 mph /  9.7 km/h 11.0 mph /  17.7 km/h 93 % 0.00 in /  0 mm
17:51 61.9 °F /  16.6 °C 60.1 °F /  15.6 °C 29.83 in /  1010 hPa NW 4.0 mph /  6.4 km/h 11.0 mph /  17.7 km/h 94 % 0.00 in /  0 mm
17:56 61.0 °F /  16.1 °C 59.2 °F /  15.1 °C 29.83 in /  1010 hPa West 2.0 mph /  3.2 km/h 9.0 mph /  14.5 km/h 94 % 0.00 in /  0 mm
18:01 59.7 °F /  15.4 °C 57.7 °F /  14.3 °C 29.83 in /  1010 hPa North 3.0 mph /  4.8 km/h 10.0 mph /  16.1 km/h 93 % 0.00 in /  0 mm
18:06 58.8 °F /  14.9 °C 57.0 °F /  13.9 °C 29.83 in /  1010 hPa North 4.0 mph /  6.4 km/h 11.0 mph /  17.7 km/h 94 % 0.00 in /  0 mm
18:11 58.1 °F /  14.5 °C 56.7 °F /  13.7 °C 29.83 in /  1010 hPa NNE 2.0 mph /  3.2 km/h 11.0 mph /  17.7 km/h 95 % 0.00 in /  0 mm
18:16 57.6 °F /  14.2 °C 56.1 °F /  13.4 °C 29.83 in /  1010 hPa NW 4.0 mph /  6.4 km/h 11.0 mph /  17.7 km/h 95 % 0.00 in /  0 mm
18:21 57.0 °F /  13.9 °C 55.9 °F /  13.3 °C 29.83 in /  1010 hPa NNW 4.0 mph /  6.4 km/h 10.0 mph /  16.1 km/h 96 % 0.00 in /  0 mm
18:26 56.7 °F /  13.7 °C 55.6 °F /  13.1 °C 29.83 in /  1010 hPa Calm   10.0 mph /  16.1 km/h 96 % 0.00 in /  0 mm
18:31 56.5 °F /  13.6 °C 55.4 °F /  13 °C 29.84 in /  1010.4 hPa WSW 1.0 mph /  1.6 km/h 10.0 mph /  16.1 km/h 96 % 0.00 in /  0 mm
18:36 55.9 °F /  13.3 °C 54.9 °F /  12.7 °C 29.84 in /  1010.4 hPa NNW 4.0 mph /  6.4 km/h 9.0 mph /  14.5 km/h 96 % 0.00 in /  0 mm
18:41 55.8 °F /  13.2 °C 54.7 °F /  12.6 °C 29.84 in /  1010.4 hPa North 1.0 mph /  1.6 km/h 7.0 mph /  11.3 km/h 96 % 0.00 in /  0 mm
18:46 55.6 °F /  13.1 °C 54.7 °F /  12.6 °C 29.84 in /  1010.4 hPa WNW 5.0 mph /  8 km/h 7.0 mph /  11.3 km/h 97 % 0.00 in /  0 mm
18:51 55.2 °F /  12.9 °C 54.3 °F /  12.4 °C 29.85 in /  1010.7 hPa NW 4.0 mph /  6.4 km/h 7.0 mph /  11.3 km/h 97 % 0.00 in /  0 mm
18:56 55.0 °F /  12.8 °C 54.1 °F /  12.3 °C 29.85 in /  1010.7 hPa NW 6.0 mph /  9.7 km/h 6.0 mph /  9.7 km/h 97 % 0.00 in /  0 mm
19:01 55.0 °F /  12.8 °C 54.1 °F /  12.3 °C 29.85 in /  1010.7 hPa NW 2.0 mph /  3.2 km/h 6.0 mph /  9.7 km/h 97 % 0.00 in /  0 mm
19:04 54.9 °F /  12.7 °C 54.0 °F /  12.2 °C 29.85 in /  1010.7 hPa NW 2.0 mph /  3.2 km/h 6.0 mph /  9.7 km/h 97 % 0.00 in /  0 mm
19:09 54.9 °F /  12.7 °C 54.0 °F /  12.2 °C 29.86 in /  1011.1 hPa North 5.0 mph /  8 km/h 6.0 mph /  9.7 km/h 97 % 0.00 in /  0 mm
19:14 54.7 °F /  12.6 °C 53.8 °F /  12.1 °C 29.86 in /  1011.1 hPa WNW 4.0 mph /  6.4 km/h 6.0 mph /  9.7 km/h 97 % 0.00 in /  0 mm
19:19 54.7 °F /  12.6 °C 53.8 °F /  12.1 °C 29.86 in /  1011.1 hPa NW 1.0 mph /  1.6 km/h 10.0 mph /  16.1 km/h 97 % 0.00 in /  0 mm
19:24 54.7 °F /  12.6 °C 53.8 °F /  12.1 °C 29.86 in /  1011.1 hPa West 1.0 mph /  1.6 km/h 10.0 mph /  16.1 km/h 97 % 0.00 in /  0 mm
19:29 54.5 °F /  12.5 °C 53.6 °F /  12 °C 29.86 in /  1011.1 hPa NW 5.0 mph /  8 km/h 10.0 mph /  16.1 km/h 97 % 0.00 in /  0 mm
19:34 54.3 °F /  12.4 °C 53.4 °F /  11.9 °C 29.86 in /  1011.1 hPa NW 4.0 mph /  6.4 km/h 8.0 mph /  12.9 km/h 97 % 0.00 in /  0 mm
19:39 53.8 °F /  12.1 °C 52.7 °F /  11.5 °C 29.87 in /  1011.4 hPa NNW 5.0 mph /  8 km/h 8.0 mph /  12.9 km/h 96 % 0.00 in /  0 mm
19:44 53.2 °F /  11.8 °C 52.2 °F /  11.2 °C 29.88 in /  1011.7 hPa North 4.0 mph /  6.4 km/h 10.0 mph /  16.1 km/h 96 % 0.00 in /  0 mm
19:49 52.9 °F /  11.6 °C 51.8 °F /  11 °C 29.88 in /  1011.7 hPa NW 5.0 mph /  8 km/h 10.0 mph /  16.1 km/h 96 % 0.00 in /  0 mm
19:54 52.5 °F /  11.4 °C 51.4 °F /  10.8 °C 29.88 in /  1011.7 hPa WNW 3.0 mph /  4.8 km/h 10.0 mph /  16.1 km/h 96 % 0.00 in /  0 mm
19:59 52.2 °F /  11.2 °C 51.1 °F /  10.6 °C 29.88 in /  1011.7 hPa North 10.0 mph /  16.1 km/h 10.0 mph /  16.1 km/h 96 % 0.00 in /  0 mm
20:04 52.0 °F /  11.1 °C 50.9 °F /  10.5 °C 29.88 in /  1011.7 hPa NW 2.0 mph /  3.2 km/h 11.0 mph /  17.7 km/h 96 % 0.00 in /  0 mm
20:09 51.6 °F /  10.9 °C 50.7 °F /  10.4 °C 29.88 in /  1011.7 hPa NW 5.0 mph /  8 km/h 11.0 mph /  17.7 km/h 97 % 0.00 in /  0 mm
20:14 51.3 °F /  10.7 °C 50.2 °F /  10.1 °C 29.88 in /  1011.7 hPa West 9.0 mph /  14.5 km/h 11.0 mph /  17.7 km/h 96 % 0.00 in /  0 mm
20:19 51.1 °F /  10.6 °C 50.2 °F /  10.1 °C 29.88 in /  1011.7 hPa NW 2.0 mph /  3.2 km/h 9.0 mph /  14.5 km/h 97 % 0.00 in /  0 mm
20:24 50.9 °F /  10.5 °C 50.0 °F /  10 °C 29.89 in /  1012.1 hPa NNE 5.0 mph /  8 km/h 9.0 mph /  14.5 km/h 97 % 0.00 in /  0 mm
20:29 50.7 °F /  10.4 °C 49.8 °F /  9.9 °C 29.89 in /  1012.1 hPa NW 3.0 mph /  4.8 km/h 9.0 mph /  14.5 km/h 97 % 0.00 in /  0 mm
20:34 50.5 °F /  10.3 °C 49.6 °F /  9.8 °C 29.89 in /  1012.1 hPa West 3.0 mph /  4.8 km/h 9.0 mph /  14.5 km/h 97 % 0.00 in /  0 mm
20:39 50.4 °F /  10.2 °C 49.5 °F /  9.7 °C 29.89 in /  1012.1 hPa NW 3.0 mph /  4.8 km/h 9.0 mph /  14.5 km/h 97 % 0.00 in /  0 mm
20:44 50.2 °F /  10.1 °C 49.3 °F /  9.6 °C 29.89 in /  1012.1 hPa NNW 2.0 mph /  3.2 km/h 7.0 mph /  11.3 km/h 97 % 0.00 in /  0 mm
20:49 50.2 °F /  10.1 °C 49.3 °F /  9.6 °C 29.89 in /  1012.1 hPa NNW 2.0 mph /  3.2 km/h 8.0 mph /  12.9 km/h 97 % 0.00 in /  0 mm
20:54 49.8 °F /  9.9 °C 48.9 °F /  9.4 °C 29.89 in /  1012.1 hPa NW 5.0 mph /  8 km/h 8.0 mph /  12.9 km/h 97 % 0.00 in /  0 mm
20:59 49.6 °F /  9.8 °C 48.7 °F /  9.3 °C 29.89 in /  1012.1 hPa NNW 1.0 mph /  1.6 km/h 8.0 mph /  12.9 km/h 97 % 0.00 in /  0 mm
21:04 49.6 °F /  9.8 °C 48.7 °F /  9.3 °C 29.89 in /  1012.1 hPa NNW 1.0 mph /  1.6 km/h 8.0 mph /  12.9 km/h 97 % 0.00 in /  0 mm
21:09 49.5 °F /  9.7 °C 48.6 °F /  9.2 °C 29.89 in /  1012.1 hPa NNW 4.0 mph /  6.4 km/h 8.0 mph /  12.9 km/h 97 % 0.00 in /  0 mm
21:14 49.3 °F /  9.6 °C 48.4 °F /  9.1 °C 29.90 in /  1012.4 hPa Calm   7.0 mph /  11.3 km/h 97 % 0.00 in /  0 mm
21:19 48.9 °F /  9.4 °C 48.0 °F /  8.9 °C 29.90 in /  1012.4 hPa NW 3.0 mph /  4.8 km/h 8.0 mph /  12.9 km/h 97 % 0.00 in /  0 mm
21:24 48.7 °F /  9.3 °C 47.8 °F /  8.8 °C 29.89 in /  1012.1 hPa NNW 1.0 mph /  1.6 km/h 8.0 mph /  12.9 km/h 97 % 0.00 in /  0 mm
21:29 48.6 °F /  9.2 °C 47.7 °F /  8.7 °C 29.90 in /  1012.4 hPa NNW 4.0 mph /  6.4 km/h 9.0 mph /  14.5 km/h 97 % 0.00 in /  0 mm
21:35 48.4 °F /  9.1 °C 47.5 °F /  8.6 °C 29.90 in /  1012.4 hPa NW 5.0 mph /  8 km/h 9.0 mph /  14.5 km/h 97 % 0.00 in /  0 mm
21:40 48.4 °F /  9.1 °C 47.8 °F /  8.8 °C 29.90 in /  1012.4 hPa NNW 2.0 mph /  3.2 km/h 9.0 mph /  14.5 km/h 98 % 0.00 in /  0 mm
21:45 48.2 °F /  9 °C 47.7 °F /  8.7 °C 29.90 in /  1012.4 hPa NNW 2.0 mph /  3.2 km/h 6.0 mph /  9.7 km/h 98 % 0.00 in /  0 mm
21:50 48.0 °F /  8.9 °C 47.5 °F /  8.6 °C 29.90 in /  1012.4 hPa NNW 2.0 mph /  3.2 km/h 6.0 mph /  9.7 km/h 98 % 0.00 in /  0 mm
21:55 48.0 °F /  8.9 °C 47.5 °F /  8.6 °C 29.89 in /  1012.1 hPa Calm   6.0 mph /  9.7 km/h 98 % 0.00 in /  0 mm
22:00 48.0 °F /  8.9 °C 47.5 °F /  8.6 °C 29.89 in /  1012.1 hPa NW 3.0 mph /  4.8 km/h 5.0 mph /  8 km/h 98 % 0.00 in /  0 mm
22:05 48.0 °F /  8.9 °C 47.5 °F /  8.6 °C 29.89 in /  1012.1 hPa NW 2.0 mph /  3.2 km/h 5.0 mph /  8 km/h 98 % 0.00 in /  0 mm
22:10 48.0 °F /  8.9 °C 47.5 °F /  8.6 °C 29.90 in /  1012.4 hPa NW 2.0 mph /  3.2 km/h 6.0 mph /  9.7 km/h 98 % 0.00 in /  0 mm
22:15 48.0 °F /  8.9 °C 47.5 °F /  8.6 °C 29.90 in /  1012.4 hPa NNW 5.0 mph /  8 km/h 6.0 mph /  9.7 km/h 98 % 0.00 in /  0 mm
22:20 47.8 °F /  8.8 °C 47.3 °F /  8.5 °C 29.90 in /  1012.4 hPa NNW 2.0 mph /  3.2 km/h 7.0 mph /  11.3 km/h 98 % 0.00 in /  0 mm
22:25 47.8 °F /  8.8 °C 47.3 °F /  8.5 °C 29.90 in /  1012.4 hPa NW 3.0 mph /  4.8 km/h 7.0 mph /  11.3 km/h 98 % 0.00 in /  0 mm
22:30 47.8 °F /  8.8 °C 47.3 °F /  8.5 °C 29.90 in /  1012.4 hPa NNW 2.0 mph /  3.2 km/h 7.0 mph /  11.3 km/h 98 % 0.00 in /  0 mm
22:35 47.7 °F /  8.7 °C 47.1 °F /  8.4 °C 29.90 in /  1012.4 hPa NNW 3.0 mph /  4.8 km/h 7.0 mph /  11.3 km/h 98 % 0.00 in /  0 mm
22:40 47.5 °F /  8.6 °C 46.9 °F /  8.3 °C 29.90 in /  1012.4 hPa NNW 1.0 mph /  1.6 km/h 7.0 mph /  11.3 km/h 98 % 0.00 in /  0 mm
22:45 47.5 °F /  8.6 °C 46.9 °F /  8.3 °C 29.90 in /  1012.4 hPa NNW 7.0 mph /  11.3 km/h 9.0 mph /  14.5 km/h 98 % 0.00 in /  0 mm
22:50 47.1 °F /  8.4 °C 46.6 °F /  8.1 °C 29.90 in /  1012.4 hPa WNW 3.0 mph /  4.8 km/h 9.0 mph /  14.5 km/h 98 % 0.00 in /  0 mm
22:55 47.1 °F /  8.4 °C 46.6 °F /  8.1 °C 29.90 in /  1012.4 hPa NW 4.0 mph /  6.4 km/h 9.0 mph /  14.5 km/h 98 % 0.00 in /  0 mm
23:00 46.9 °F /  8.3 °C 46.4 °F /  8 °C 29.90 in /  1012.4 hPa NW 3.0 mph /  4.8 km/h 7.0 mph /  11.3 km/h 98 % 0.00 in /  0 mm
23:05 46.9 °F /  8.3 °C 46.4 °F /  8 °C 29.90 in /  1012.4 hPa North 4.0 mph /  6.4 km/h 9.0 mph /  14.5 km/h 98 % 0.00 in /  0 mm
23:10 46.6 °F /  8.1 °C 45.9 °F /  7.7 °C 29.90 in /  1012.4 hPa NNW 5.0 mph /  8 km/h 10.0 mph /  16.1 km/h 97 % 0.00 in /  0 mm
23:15 46.4 °F /  8 °C 45.7 °F /  7.6 °C 29.90 in /  1012.4 hPa NW 4.0 mph /  6.4 km/h 10.0 mph /  16.1 km/h 97 % 0.00 in /  0 mm
23:20 46.2 °F /  7.9 °C 45.5 °F /  7.5 °C 29.91 in /  1012.8 hPa WNW 3.0 mph /  4.8 km/h 10.0 mph /  16.1 km/h 97 % 0.00 in /  0 mm
23:25 45.9 °F /  7.7 °C 45.3 °F /  7.4 °C 29.91 in /  1012.8 hPa NW 2.0 mph /  3.2 km/h 9.0 mph /  14.5 km/h 98 % 0.00 in /  0 mm
23:30 45.9 °F /  7.7 °C 45.3 °F /  7.4 °C 29.91 in /  1012.8 hPa NW 3.0 mph /  4.8 km/h 9.0 mph /  14.5 km/h 98 % 0.00 in /  0 mm
23:35 45.7 °F /  7.6 °C 45.1 °F /  7.3 °C 29.91 in /  1012.8 hPa North 8.0 mph /  12.9 km/h 9.0 mph /  14.5 km/h 98 % 0.00 in /  0 mm
23:40 45.7 °F /  7.6 °C 45.1 °F /  7.3 °C 29.91 in /  1012.8 hPa NW 2.0 mph /  3.2 km/h 9.0 mph /  14.5 km/h 98 % 0.00 in /  0 mm
23:45 45.7 °F /  7.6 °C 45.1 °F /  7.3 °C 29.91 in /  1012.8 hPa NW 6.0 mph /  9.7 km/h 9.0 mph /  14.5 km/h 98 % 0.00 in /  0 mm
23:50 45.3 °F /  7.4 °C 44.8 °F /  7.1 °C 29.91 in /  1012.8 hPa NW 4.0 mph /  6.4 km/h 9.0 mph /  14.5 km/h 98 % 0.00 in /  0 mm
23:55 45.3 °F /  7.4 °C 44.8 °F /  7.1 °C 29.91 in /  1012.8 hPa West 2.0 mph /  3.2 km/h 8.0 mph /  12.9 km/h 98 % 0.00 in /  0 mm
Spring, Texas: Villages of Bridgestone
Compliments of Weather Underground - 3 mb

Script developed by  Jim McMurry - jmcmurry@mwt.net Adapted for the template by  Wim van der Kuil - Leuven-Template.eu

You find our weather info also at:

UK Metoffice

WeatherCloud

Weather Underground

Mid-South Weather Network

AWEKAS

Citizen Weather Observer Program (CWOP)

HAMweather, WeatherForYou, PWS Weather

Equipment we use:

Weather-station
Davis Vantage Vue

Weather-program
Meteohub

Weather-server
Debian 7.9 x86 (Guest)

Provider
DreamHost

Davis Vantage Vue

Meteohub

Debian 7.9 x86 (Guest)

DreamHost